createdAt,value
2019-03-08T00:01:59.560Z,7.50
2019-03-08T00:04:29.725Z,7.50
2019-03-08T00:06:59.957Z,7.60
2019-03-08T00:09:30.043Z,7.50
2019-03-08T00:12:00.094Z,7.60
2019-03-08T00:14:30.340Z,7.60
2019-03-08T00:16:59.709Z,7.60
2019-03-08T00:19:30.189Z,7.50
2019-03-08T00:21:59.528Z,7.40
2019-03-08T00:24:28.868Z,7.40
2019-03-08T00:26:58.174Z,7.30
2019-03-08T00:29:27.948Z,7.30
2019-03-08T00:31:57.688Z,7.20
2019-03-08T00:34:27.862Z,7.20
2019-03-08T00:36:57.215Z,7.20
2019-03-08T00:39:27.133Z,7.20
2019-03-08T00:41:56.805Z,7.20
2019-03-08T00:44:26.821Z,7.20
2019-03-08T00:46:56.970Z,7.20
2019-03-08T00:49:26.842Z,7.20
2019-03-08T00:51:56.565Z,7.10
2019-03-08T00:54:27.066Z,7.00
2019-03-08T00:56:56.842Z,6.90
2019-03-08T00:59:26.929Z,6.80
2019-03-08T01:01:57.166Z,6.70
2019-03-08T01:04:27.343Z,6.70
2019-03-08T01:06:57.062Z,6.60
2019-03-08T01:09:26.822Z,6.50
2019-03-08T01:11:56.551Z,6.40
2019-03-08T01:14:25.942Z,6.40
2019-03-08T01:17:14.392Z,6.40
2019-03-08T01:19:44.301Z,6.30
2019-03-08T01:22:13.751Z,6.30
2019-03-08T01:24:43.565Z,6.30
2019-03-08T01:27:12.898Z,6.30
2019-03-08T01:29:43.483Z,6.30
2019-03-08T01:32:13.421Z,6.30
2019-03-08T01:34:43.215Z,6.30
2019-03-08T01:37:13.417Z,6.30
2019-03-08T01:39:43.488Z,6.30
2019-03-08T01:42:13.354Z,6.30
2019-03-08T01:44:43.885Z,6.30
2019-03-08T01:47:13.633Z,6.30
2019-03-08T01:49:43.136Z,6.30
2019-03-08T01:52:12.804Z,6.30
2019-03-08T01:54:42.556Z,6.30
2019-03-08T01:57:12.311Z,6.30
2019-03-08T01:59:42.450Z,6.30
2019-03-08T02:02:12.569Z,6.30
2019-03-08T02:04:42.350Z,6.30
2019-03-08T02:07:11.714Z,6.30
2019-03-08T02:09:41.918Z,6.20
2019-03-08T02:12:11.815Z,6.20
2019-03-08T02:15:00.285Z,6.20
2019-03-08T02:17:30.483Z,6.20
2019-03-08T02:20:00.340Z,6.20
2019-03-08T02:22:30.810Z,6.20
2019-03-08T02:25:00.627Z,6.20
2019-03-08T02:27:29.958Z,6.20
2019-03-08T02:29:59.731Z,6.20
2019-03-08T02:32:48.595Z,6.20
2019-03-08T02:35:19.009Z,6.20
2019-03-08T02:37:48.376Z,6.20
2019-03-08T02:40:34.672Z,6.10
2019-03-08T02:43:06.160Z,6.20
2019-03-08T02:45:35.692Z,6.10
2019-03-08T02:48:05.397Z,6.10
2019-03-08T02:50:35.567Z,6.10
2019-03-08T02:53:05.315Z,6.10
2019-03-08T02:55:35.299Z,6.10
2019-03-08T02:58:04.918Z,6.10
2019-03-08T03:00:38.370Z,6.10
2019-03-08T03:03:08.181Z,6.00
2019-03-08T03:05:37.633Z,6.00
2019-03-08T03:08:07.393Z,6.00
2019-03-08T03:10:37.191Z,6.00
2019-03-08T03:13:07.298Z,6.00
2019-03-08T03:15:56.108Z,6.00
2019-03-08T03:18:25.952Z,6.00
2019-03-08T03:20:55.773Z,6.00
2019-03-08T03:23:25.591Z,5.90
2019-03-08T03:25:55.312Z,5.90
2019-03-08T03:28:25.006Z,5.90
2019-03-08T03:30:54.994Z,5.90
2019-03-08T03:33:25.151Z,5.90
2019-03-08T03:35:54.508Z,5.90
2019-03-08T03:38:24.348Z,5.80
2019-03-08T03:40:54.036Z,5.80
2019-03-08T03:43:23.502Z,5.80
2019-03-08T03:45:53.354Z,5.80
2019-03-08T03:48:23.112Z,5.80
2019-03-08T03:50:52.638Z,5.80
2019-03-08T03:53:22.088Z,5.80
2019-03-08T03:55:51.868Z,5.80
2019-03-08T03:58:21.794Z,5.80
2019-03-08T04:00:51.575Z,5.80
2019-03-08T04:03:21.308Z,5.80
2019-03-08T04:05:51.064Z,5.80
2019-03-08T04:08:20.531Z,5.80
2019-03-08T04:10:50.432Z,5.80
2019-03-08T04:13:20.190Z,5.80
2019-03-08T04:15:50.146Z,5.80
2019-03-08T04:18:19.863Z,5.90
2019-03-08T04:20:49.302Z,5.90
2019-03-08T04:23:19.033Z,5.90
2019-03-08T04:25:48.991Z,5.90
2019-03-08T04:28:18.783Z,6.00
2019-03-08T04:30:48.989Z,6.00
2019-03-08T04:33:19.644Z,6.00
2019-03-08T04:35:49.009Z,6.00
2019-03-08T04:38:19.857Z,5.90
2019-03-08T04:40:49.631Z,5.90
2019-03-08T04:43:18.981Z,5.90
2019-03-08T04:45:49.057Z,5.90
2019-03-08T04:48:18.801Z,5.90
2019-03-08T04:50:48.502Z,5.90
2019-03-08T04:53:18.710Z,5.80
2019-03-08T04:55:48.022Z,5.90
2019-03-08T04:58:17.636Z,5.80
2019-03-08T05:00:47.361Z,5.80
2019-03-08T05:03:17.294Z,5.80
2019-03-08T05:05:47.298Z,5.90
2019-03-08T05:08:17.426Z,5.90
2019-03-08T05:10:47.731Z,5.90
2019-03-08T05:13:17.067Z,5.90
2019-03-08T05:15:46.867Z,5.90
2019-03-08T05:18:16.507Z,5.90
2019-03-08T05:20:45.914Z,5.90
2019-03-08T05:23:15.600Z,5.90
2019-03-08T05:25:45.447Z,5.90
2019-03-08T05:28:15.549Z,6.00
2019-03-08T05:30:45.441Z,6.00
2019-03-08T05:33:15.538Z,6.00
2019-03-08T05:35:46.076Z,6.00
2019-03-08T05:38:15.985Z,6.00
2019-03-08T05:40:45.466Z,5.90
2019-03-08T05:43:15.249Z,6.00
2019-03-08T05:45:45.609Z,5.90
2019-03-08T05:48:14.971Z,5.90
2019-03-08T05:50:44.282Z,6.00
2019-03-08T05:53:14.567Z,6.00
2019-03-08T05:55:44.258Z,5.90
2019-03-08T05:58:14.358Z,5.90
2019-03-08T06:00:44.160Z,5.90
2019-03-08T06:03:13.894Z,5.90
2019-03-08T06:05:44.060Z,5.90
2019-03-08T06:08:13.773Z,5.90
2019-03-08T06:10:43.582Z,5.90
2019-03-08T06:13:13.075Z,5.90
2019-03-08T06:15:42.693Z,5.80
2019-03-08T06:18:15.012Z,5.80
2019-03-08T06:20:45.408Z,5.80
2019-03-08T06:23:15.492Z,5.80
2019-03-08T06:25:45.498Z,5.80
2019-03-08T06:28:15.910Z,5.80
2019-03-08T06:30:46.300Z,5.80
2019-03-08T06:33:15.833Z,5.80
2019-03-08T06:35:46.661Z,5.80
2019-03-08T06:38:16.034Z,5.80
2019-03-08T06:41:04.629Z,5.70
2019-03-08T06:43:34.793Z,5.70
2019-03-08T06:46:04.909Z,5.70
2019-03-08T06:48:34.824Z,5.70
2019-03-08T06:51:04.624Z,5.60
2019-03-08T06:53:34.009Z,5.60
2019-03-08T06:56:04.108Z,5.60
2019-03-08T06:58:42.748Z,5.60
2019-03-08T07:01:16.995Z,5.60
2019-03-08T07:03:46.521Z,5.60
2019-03-08T07:06:15.895Z,5.60
2019-03-08T07:08:45.605Z,5.60
2019-03-08T07:11:15.732Z,5.60
2019-03-08T07:13:47.842Z,5.50
2019-03-08T07:16:17.285Z,5.50
2019-03-08T07:19:05.987Z,5.50
2019-03-08T07:21:51.640Z,5.40
2019-03-08T07:24:40.070Z,5.40
2019-03-08T07:27:23.229Z,5.40
2019-03-08T07:30:14.921Z,5.40
2019-03-08T07:32:53.065Z,5.30
2019-03-08T07:35:40.458Z,5.40
2019-03-08T07:38:28.421Z,5.30
2019-03-08T07:41:20.284Z,5.30
2019-03-08T07:44:03.770Z,5.30
2019-03-08T07:46:49.431Z,5.30
2019-03-08T07:49:36.109Z,5.30
2019-03-08T07:52:28.014Z,5.30
2019-03-08T07:55:03.447Z,5.30
2019-03-08T07:57:51.102Z,5.30
2019-03-08T08:00:44.064Z,5.30
2019-03-08T08:03:25.433Z,5.30
2019-03-08T08:06:08.315Z,5.30
2019-03-08T08:08:57.736Z,5.30
2019-03-08T08:12:04.895Z,5.40
2019-03-08T08:14:56.343Z,5.40
2019-03-08T08:17:44.976Z,5.40
2019-03-08T08:20:39.139Z,5.50
2019-03-08T08:23:17.714Z,5.50
2019-03-08T08:26:05.505Z,5.40
2019-03-08T08:28:56.949Z,5.40
2019-03-08T08:31:34.964Z,5.40
2019-03-08T08:34:29.552Z,5.40
2019-03-08T08:37:11.331Z,5.40
2019-03-08T08:40:05.707Z,5.40
2019-03-08T08:42:54.457Z,5.40
2019-03-08T08:45:51.797Z,5.50
2019-03-08T08:48:40.901Z,5.50
2019-03-08T08:51:19.345Z,5.50
2019-03-08T08:54:13.971Z,5.40
2019-03-08T08:56:52.796Z,5.40
2019-03-08T08:59:38.914Z,5.30
2019-03-08T09:02:21.530Z,5.30
2019-03-08T09:05:12.946Z,5.30
2019-03-08T09:07:57.659Z,5.40
2019-03-08T09:10:51.913Z,5.40
2019-03-08T09:13:46.321Z,5.50
2019-03-08T09:16:47.411Z,5.60
2019-03-08T09:19:26.816Z,5.60
2019-03-08T09:22:16.104Z,5.70
2019-03-08T09:24:51.322Z,5.80
2019-03-08T09:27:37.161Z,5.90
2019-03-08T09:30:13.964Z,6.10
2019-03-08T09:33:08.892Z,6.20
2019-03-08T09:36:02.071Z,6.20
2019-03-08T09:39:06.629Z,6.20
2019-03-08T09:42:07.351Z,6.20
2019-03-08T09:44:43.904Z,6.20
2019-03-08T09:47:32.877Z,6.30
2019-03-08T09:50:20.228Z,6.40
2019-03-08T09:53:14.725Z,6.30
2019-03-08T09:56:06.376Z,6.30
2019-03-08T09:58:54.077Z,6.30
2019-03-08T10:01:45.347Z,6.40
2019-03-08T10:04:36.988Z,6.40
2019-03-08T10:07:16.377Z,6.40
2019-03-08T10:10:20.001Z,6.50
2019-03-08T10:13:04.858Z,6.70
2019-03-08T10:15:51.696Z,6.90
2019-03-08T10:18:52.055Z,7.30
2019-03-08T10:21:40.334Z,7.60
2019-03-08T10:24:19.612Z,7.90
2019-03-08T10:27:14.674Z,8.10
2019-03-08T10:30:09.817Z,8.20
2019-03-08T10:32:45.389Z,8.00
2019-03-08T10:35:43.405Z,7.80
2019-03-08T10:38:31.382Z,7.60
2019-03-08T10:41:12.973Z,7.40
2019-03-08T10:44:12.460Z,7.20
2019-03-08T10:46:52.405Z,6.90
2019-03-08T10:49:40.006Z,6.80
2019-03-08T10:52:20.738Z,6.70
2019-03-08T10:54:58.517Z,6.80
2019-03-08T10:57:37.692Z,7.00
2019-03-08T11:00:31.755Z,7.20
2019-03-08T11:03:26.632Z,7.50
2019-03-08T11:06:27.728Z,7.90
2019-03-08T11:09:26.257Z,8.30
2019-03-08T11:12:13.543Z,8.70
2019-03-08T11:15:00.596Z,9.00
2019-03-08T11:17:58.072Z,9.40
2019-03-08T11:20:41.045Z,10.00
2019-03-08T11:23:23.094Z,10.90
2019-03-08T11:26:17.531Z,11.60
2019-03-08T11:29:31.328Z,12.20
2019-03-08T11:32:23.020Z,12.50
2019-03-08T11:35:02.662Z,12.50
2019-03-08T11:37:37.197Z,12.10
2019-03-08T11:40:25.258Z,11.70
2019-03-08T11:43:13.586Z,11.20
2019-03-08T11:46:13.996Z,10.90
2019-03-08T11:49:03.050Z,10.70
2019-03-08T11:51:42.880Z,9.90
2019-03-08T11:54:18.363Z,9.30
2019-03-08T11:57:10.079Z,8.90
2019-03-08T11:59:54.630Z,8.90
2019-03-08T12:02:46.359Z,9.50
2019-03-08T12:05:53.318Z,9.90
2019-03-08T12:08:55.751Z,10.40
2019-03-08T12:11:53.579Z,10.90
2019-03-08T12:14:42.076Z,11.30
2019-03-08T12:17:28.419Z,11.90
2019-03-08T12:20:23.192Z,12.40
2019-03-08T12:23:10.921Z,12.70
2019-03-08T12:25:58.474Z,12.90
2019-03-08T12:28:47.511Z,12.90
2019-03-08T12:31:39.013Z,13.10
2019-03-08T12:34:25.425Z,13.50
2019-03-08T12:37:20.057Z,13.80
2019-03-08T12:40:00.827Z,13.40
2019-03-08T12:42:48.279Z,13.10
2019-03-08T12:45:42.034Z,12.50
2019-03-08T12:48:29.248Z,11.70
2019-03-08T12:51:15.960Z,11.00
2019-03-08T12:54:03.470Z,10.40
2019-03-08T12:56:52.090Z,9.80
2019-03-08T12:59:29.227Z,9.40
2019-03-08T13:02:23.219Z,9.10
2019-03-08T13:05:10.589Z,9.10
2019-03-08T13:08:07.705Z,9.40
2019-03-08T13:10:37.837Z,9.50
2019-03-08T13:13:07.312Z,9.50
2019-03-08T13:15:37.291Z,9.40
2019-03-08T13:18:07.155Z,9.40
2019-03-08T13:20:37.556Z,9.80
2019-03-08T13:23:07.425Z,10.70
2019-03-08T13:25:37.267Z,11.40
2019-03-08T13:28:06.891Z,11.40
2019-03-08T13:30:36.223Z,11.60
2019-03-08T13:33:05.579Z,12.30
2019-03-08T13:35:36.916Z,12.70
2019-03-08T13:38:07.003Z,12.90
2019-03-08T13:40:36.638Z,13.30
2019-03-08T13:43:06.349Z,13.40
2019-03-08T13:45:36.565Z,13.30
2019-03-08T13:48:06.367Z,13.00
2019-03-08T13:50:35.993Z,12.60
2019-03-08T13:53:05.502Z,12.20
2019-03-08T13:55:34.851Z,12.00
2019-03-08T13:58:04.541Z,11.80
2019-03-08T14:00:34.301Z,11.60
2019-03-08T14:03:05.013Z,11.60
2019-03-08T14:05:34.753Z,11.70
2019-03-08T14:08:04.961Z,11.70
2019-03-08T14:10:35.546Z,11.80
2019-03-08T14:13:04.845Z,11.90
2019-03-08T14:15:35.387Z,11.60
2019-03-08T14:18:05.214Z,11.70
2019-03-08T14:20:35.525Z,11.80
2019-03-08T14:23:06.163Z,11.80
2019-03-08T14:25:55.122Z,12.10
2019-03-08T14:28:24.596Z,12.30
2019-03-08T14:31:03.785Z,12.40
2019-03-08T14:33:42.578Z,12.70
2019-03-08T14:36:12.476Z,12.80
2019-03-08T14:38:42.593Z,12.30
2019-03-08T14:41:43.121Z,11.80
2019-03-08T14:44:38.474Z,11.90
2019-03-08T14:47:29.368Z,12.10
2019-03-08T14:50:00.393Z,12.60
2019-03-08T14:52:30.451Z,13.10
2019-03-08T14:55:00.486Z,13.50
2019-03-08T14:57:49.184Z,13.80
2019-03-08T15:00:25.362Z,14.00
2019-03-08T15:02:54.345Z,13.70
2019-03-08T15:05:24.454Z,13.50
2019-03-08T15:07:54.187Z,13.40
2019-03-08T15:10:23.605Z,12.80
2019-03-08T15:12:53.222Z,12.20
2019-03-08T15:15:22.630Z,11.50
2019-03-08T15:17:53.537Z,11.00
2019-03-08T15:20:23.959Z,10.50
2019-03-08T15:22:54.149Z,10.30
2019-03-08T15:25:24.174Z,10.30
2019-03-08T15:27:54.049Z,10.60
2019-03-08T15:30:23.537Z,11.20
2019-03-08T15:32:53.254Z,11.30
2019-03-08T15:35:23.102Z,11.10
2019-03-08T15:38:12.321Z,10.70
2019-03-08T15:40:42.467Z,10.30
2019-03-08T15:43:13.732Z,9.90
2019-03-08T15:45:44.526Z,9.60
2019-03-08T15:48:15.634Z,9.40
2019-03-08T15:50:46.867Z,9.40
2019-03-08T15:53:17.855Z,9.30
2019-03-08T15:55:53.025Z,9.40
2019-03-08T15:58:18.958Z,9.50
2019-03-08T16:00:48.290Z,9.40
2019-03-08T16:03:18.068Z,9.30
2019-03-08T16:05:47.857Z,9.20
2019-03-08T16:08:17.553Z,9.20
2019-03-08T16:10:47.158Z,9.10
2019-03-08T16:13:17.347Z,9.00
2019-03-08T16:15:47.477Z,9.00
2019-03-08T16:18:17.980Z,8.90
2019-03-08T16:20:47.637Z,8.80
2019-03-08T16:23:17.313Z,8.80
2019-03-08T16:25:48.753Z,8.70
2019-03-08T16:28:18.191Z,8.60
2019-03-08T16:30:51.012Z,8.50
2019-03-08T16:33:24.143Z,8.40
2019-03-08T16:36:03.554Z,8.40
2019-03-08T16:38:42.313Z,8.30
2019-03-08T16:41:20.594Z,8.20
2019-03-08T16:44:04.093Z,8.10
2019-03-08T16:46:55.482Z,8.10
2019-03-08T16:49:32.509Z,7.90
2019-03-08T16:52:23.213Z,7.80
2019-03-08T16:55:01.331Z,7.70
2019-03-08T16:57:37.221Z,7.50
2019-03-08T17:00:19.262Z,7.40
2019-03-08T17:03:11.167Z,7.20
2019-03-08T17:06:08.772Z,7.00
2019-03-08T17:08:56.980Z,6.70
2019-03-08T17:11:54.327Z,6.60
2019-03-08T17:14:45.456Z,6.30
2019-03-08T17:17:42.934Z,6.10
2019-03-08T17:20:32.634Z,5.90
2019-03-08T17:23:14.690Z,5.70
2019-03-08T17:25:51.135Z,5.60
2019-03-08T17:28:45.694Z,5.60
2019-03-08T17:31:28.752Z,5.50
2019-03-08T17:34:27.240Z,5.40
2019-03-08T17:37:02.558Z,5.30
2019-03-08T17:39:42.370Z,5.20
2019-03-08T17:42:30.067Z,5.20
2019-03-08T17:45:11.333Z,5.10
2019-03-08T17:47:59.316Z,5.10
2019-03-08T17:50:39.045Z,5.00
2019-03-08T17:53:28.884Z,4.90
2019-03-08T17:56:20.277Z,4.90
2019-03-08T17:59:08.853Z,4.80
2019-03-08T18:01:44.793Z,4.80
2019-03-08T18:04:28.680Z,4.70
2019-03-08T18:07:16.549Z,4.70
2019-03-08T18:10:04.347Z,4.70
2019-03-08T18:13:11.321Z,4.70
2019-03-08T18:16:05.768Z,4.70
2019-03-08T18:18:57.542Z,4.70
2019-03-08T18:21:46.299Z,4.70
2019-03-08T18:24:37.414Z,4.70
2019-03-08T18:27:41.505Z,4.70
2019-03-08T18:30:42.926Z,4.70
2019-03-08T18:33:46.426Z,4.70
2019-03-08T18:36:22.650Z,4.70
2019-03-08T18:39:21.209Z,4.70
2019-03-08T18:42:15.529Z,4.70
2019-03-08T18:45:03.045Z,4.70
2019-03-08T18:47:50.522Z,4.70
2019-03-08T18:50:27.548Z,4.70
2019-03-08T18:53:14.889Z,4.70
2019-03-08T18:56:12.583Z,4.70
2019-03-08T18:59:01.680Z,4.60
2019-03-08T19:01:44.684Z,4.60
2019-03-08T19:04:28.538Z,4.60
2019-03-08T19:07:16.760Z,4.60
2019-03-08T19:09:59.201Z,4.70
2019-03-08T19:12:48.974Z,4.70
2019-03-08T19:15:43.785Z,4.70
2019-03-08T19:18:50.796Z,4.70
2019-03-08T19:21:39.134Z,4.70
2019-03-08T19:24:14.211Z,4.70
2019-03-08T19:27:24.812Z,4.70
2019-03-08T19:30:07.506Z,4.80
2019-03-08T19:33:00.113Z,4.90
2019-03-08T19:35:52.123Z,4.90
2019-03-08T19:39:05.240Z,4.90
2019-03-08T19:42:09.783Z,5.00
2019-03-08T19:45:01.877Z,5.00
2019-03-08T19:47:50.193Z,5.00
2019-03-08T19:50:47.799Z,5.00
2019-03-08T19:53:25.053Z,5.00
2019-03-08T19:56:13.050Z,5.00
2019-03-08T19:59:04.609Z,5.00
2019-03-08T20:01:45.703Z,5.10
2019-03-08T20:04:39.170Z,5.00
2019-03-08T20:07:36.578Z,5.00
2019-03-08T20:10:27.916Z,5.00
2019-03-08T20:13:31.355Z,5.00
2019-03-08T20:16:25.498Z,5.00
2019-03-08T20:19:16.597Z,5.00
2019-03-08T20:22:03.620Z,5.00
2019-03-08T20:24:51.481Z,5.10
2019-03-08T20:27:33.026Z,5.10
2019-03-08T20:30:20.797Z,5.10
2019-03-08T20:33:12.284Z,5.10
2019-03-08T20:35:54.648Z,5.10
2019-03-08T20:38:38.862Z,5.10
2019-03-08T20:41:19.331Z,5.10
2019-03-08T20:44:00.162Z,5.10
2019-03-08T20:46:40.204Z,5.10
2019-03-08T20:49:09.720Z,5.10
2019-03-08T20:51:39.827Z,5.10
2019-03-08T20:54:10.237Z,5.00
2019-03-08T20:56:40.075Z,5.10
2019-03-08T20:59:10.628Z,5.00
2019-03-08T21:01:40.017Z,5.00
2019-03-08T21:04:09.947Z,5.00
2019-03-08T21:06:39.899Z,5.00
2019-03-08T21:09:09.875Z,4.90
2019-03-08T21:11:40.420Z,4.90
2019-03-08T21:14:10.110Z,4.80
2019-03-08T21:16:39.880Z,4.80
2019-03-08T21:19:09.477Z,4.80
2019-03-08T21:21:39.441Z,4.80
2019-03-08T21:24:09.337Z,4.80
2019-03-08T21:26:38.901Z,4.80
2019-03-08T21:29:08.280Z,4.80
2019-03-08T21:31:38.062Z,4.80
2019-03-08T21:34:08.209Z,4.80
2019-03-08T21:36:38.306Z,4.80
2019-03-08T21:39:08.074Z,4.80
2019-03-08T21:41:38.090Z,4.80
2019-03-08T21:44:26.651Z,4.80
2019-03-08T21:46:55.967Z,4.80
2019-03-08T21:49:25.700Z,4.80
2019-03-08T21:51:55.149Z,4.80
2019-03-08T21:54:24.581Z,4.80
2019-03-08T21:56:54.257Z,4.80
2019-03-08T21:59:42.705Z,4.80
2019-03-08T22:02:13.241Z,4.80
2019-03-08T22:04:54.454Z,4.90
2019-03-08T22:07:24.152Z,4.90
2019-03-08T22:09:58.884Z,4.90
2019-03-08T22:12:29.100Z,4.90
2019-03-08T22:14:58.740Z,4.90
2019-03-08T22:17:29.070Z,4.90
2019-03-08T22:19:58.492Z,5.00
2019-03-08T22:22:28.243Z,5.00
2019-03-08T22:24:58.041Z,5.00
2019-03-08T22:27:28.244Z,5.00
2019-03-08T22:29:58.142Z,5.00
2019-03-08T22:32:27.929Z,5.00
2019-03-08T22:34:57.617Z,5.00
2019-03-08T22:37:27.014Z,5.10
2019-03-08T22:39:57.096Z,5.00
2019-03-08T22:42:26.685Z,5.00
2019-03-08T22:44:56.787Z,5.00
2019-03-08T22:47:26.461Z,5.10
2019-03-08T22:49:56.541Z,5.10
2019-03-08T22:52:25.885Z,5.10
2019-03-08T22:54:56.069Z,5.10
2019-03-08T22:57:25.602Z,5.20
2019-03-08T22:59:55.420Z,5.20
2019-03-08T23:02:24.968Z,5.20
2019-03-08T23:04:54.507Z,5.30
2019-03-08T23:07:24.764Z,5.30
2019-03-08T23:09:54.245Z,5.30
2019-03-08T23:12:24.755Z,5.30
2019-03-08T23:14:54.485Z,5.30
2019-03-08T23:17:24.737Z,5.30
2019-03-08T23:19:55.084Z,5.40
2019-03-08T23:22:24.855Z,5.30
2019-03-08T23:24:54.578Z,5.40
2019-03-08T23:27:29.508Z,5.40
2019-03-08T23:30:02.104Z,5.30
2019-03-08T23:32:44.501Z,5.30
2019-03-08T23:35:14.565Z,5.30
2019-03-08T23:37:44.117Z,5.30
2019-03-08T23:40:13.763Z,5.30
2019-03-08T23:42:43.135Z,5.40
2019-03-08T23:45:12.967Z,5.40
2019-03-08T23:47:43.066Z,5.40
2019-03-08T23:50:13.056Z,5.40
2019-03-08T23:52:42.824Z,5.40
2019-03-08T23:55:12.579Z,5.40
2019-03-08T23:57:42.612Z,5.50
